createdAt,value
2018-08-21T00:00:22.872Z,21.72
2018-08-21T00:01:03.435Z,21.72
2018-08-21T00:01:44.003Z,21.7
2018-08-21T00:02:24.561Z,21.76
2018-08-21T00:03:05.125Z,21.76
2018-08-21T00:03:45.692Z,21.79
2018-08-21T00:04:26.245Z,21.75
2018-08-21T00:05:06.807Z,21.76
2018-08-21T00:05:47.371Z,21.82
2018-08-21T00:06:27.935Z,21.8
2018-08-21T00:07:08.514Z,21.85
2018-08-21T00:07:49.078Z,21.8
2018-08-21T00:08:29.649Z,21.83
2018-08-21T00:09:10.244Z,21.82
2018-08-21T00:09:50.807Z,21.82
2018-08-21T00:10:31.379Z,21.83
2018-08-21T00:11:11.942Z,21.8
2018-08-21T00:11:52.509Z,21.82
2018-08-21T00:12:33.079Z,21.7
2018-08-21T00:13:13.637Z,21.79
2018-08-21T00:13:54.204Z,21.82
2018-08-21T00:14:34.773Z,21.75
2018-08-21T00:15:15.344Z,21.83
2018-08-21T00:15:55.920Z,21.79
2018-08-21T00:16:36.518Z,21.89
2018-08-21T00:17:17.079Z,21.79
2018-08-21T00:17:57.671Z,21.77
2018-08-21T00:18:38.228Z,21.83
2018-08-21T00:19:18.785Z,21.82
2018-08-21T00:19:59.345Z,21.89
2018-08-21T00:20:39.916Z,21.75
2018-08-21T00:21:20.503Z,21.85
2018-08-21T00:22:01.046Z,21.79
2018-08-21T00:22:41.627Z,21.83
2018-08-21T00:23:22.189Z,21.82
2018-08-21T00:24:02.752Z,21.88
2018-08-21T00:24:43.317Z,21.77
2018-08-21T00:25:23.876Z,21.83
2018-08-21T00:26:04.443Z,21.79
2018-08-21T00:26:45.004Z,21.79
2018-08-21T00:27:25.563Z,21.85
2018-08-21T00:28:06.121Z,21.77
2018-08-21T00:28:46.711Z,21.8
2018-08-21T00:29:27.293Z,21.73
2018-08-21T00:30:07.868Z,21.8
2018-08-21T00:30:48.428Z,21.79
2018-08-21T00:31:28.983Z,21.8
2018-08-21T00:32:09.547Z,21.75
2018-08-21T00:32:50.114Z,21.75
2018-08-21T00:33:30.662Z,21.75
2018-08-21T00:34:11.274Z,21.7
2018-08-21T00:34:51.823Z,21.8
2018-08-21T00:35:32.388Z,21.75
2018-08-21T00:36:12.948Z,21.77
2018-08-21T00:36:53.504Z,21.77
2018-08-21T00:37:34.057Z,21.7
2018-08-21T00:38:14.631Z,21.76
2018-08-21T00:38:55.195Z,21.88
2018-08-21T00:39:35.756Z,21.85
2018-08-21T00:40:16.314Z,21.83
2018-08-21T00:40:56.877Z,21.8
2018-08-21T00:41:37.448Z,21.82
2018-08-21T00:42:18.009Z,21.8
2018-08-21T00:42:58.565Z,21.79
2018-08-21T00:43:39.127Z,21.8
2018-08-21T00:44:19.700Z,21.8
2018-08-21T00:45:00.316Z,21.77
2018-08-21T00:45:40.869Z,21.72
2018-08-21T00:46:21.422Z,21.62
2018-08-21T00:47:01.998Z,21.61
2018-08-21T00:47:42.555Z,21.66
2018-08-21T00:48:23.111Z,21.64
2018-08-21T00:49:03.678Z,21.61
2018-08-21T00:49:44.239Z,21.73
2018-08-21T00:50:24.797Z,21.72
2018-08-21T00:51:05.366Z,21.66
2018-08-21T00:51:45.943Z,21.7
2018-08-21T00:52:26.505Z,21.76
2018-08-21T00:53:07.077Z,21.79
2018-08-21T00:53:47.639Z,21.75
2018-08-21T00:54:28.205Z,21.75
2018-08-21T00:55:08.741Z,21.67
2018-08-21T00:55:49.307Z,21.77
2018-08-21T00:56:29.878Z,21.77
2018-08-21T00:57:10.456Z,21.79
2018-08-21T00:57:51.015Z,21.67
2018-08-21T00:58:31.580Z,21.66
2018-08-21T00:59:12.154Z,21.67
2018-08-21T00:59:52.721Z,21.7
2018-08-21T01:00:33.280Z,21.72
2018-08-21T01:01:13.847Z,21.7
2018-08-21T01:01:54.426Z,21.69
2018-08-21T01:02:35.012Z,21.62
2018-08-21T01:03:15.571Z,21.66
2018-08-21T01:03:56.132Z,21.75
2018-08-21T01:04:36.699Z,21.52
2018-08-21T01:05:17.260Z,21.6
2018-08-21T01:05:57.827Z,21.62
2018-08-21T01:06:38.388Z,21.75
2018-08-21T01:07:18.962Z,21.69
2018-08-21T01:07:59.537Z,21.66
2018-08-21T01:08:40.100Z,21.61
2018-08-21T01:09:20.659Z,21.66
2018-08-21T01:10:01.226Z,21.66
2018-08-21T01:10:41.796Z,21.69
2018-08-21T01:11:22.362Z,21.7
2018-08-21T01:12:02.922Z,21.7
2018-08-21T01:12:43.482Z,21.69
2018-08-21T01:13:24.062Z,21.64
2018-08-21T01:14:04.644Z,21.51
2018-08-21T01:14:45.197Z,21.54
2018-08-21T01:15:25.759Z,21.55
2018-08-21T01:16:06.326Z,21.48
2018-08-21T01:16:46.888Z,21.61
2018-08-21T01:17:27.459Z,21.6
2018-08-21T01:18:08.025Z,21.51
2018-08-21T01:18:48.587Z,21.54
2018-08-21T01:19:29.146Z,21.45
2018-08-21T01:20:09.711Z,21.52
2018-08-21T01:20:50.312Z,21.48
2018-08-21T01:21:30.878Z,21.46
2018-08-21T01:22:11.443Z,21.4
2018-08-21T01:22:52.014Z,21.42
2018-08-21T01:23:32.579Z,21.45
2018-08-21T01:24:13.134Z,21.46
2018-08-21T01:24:53.700Z,21.37
2018-08-21T01:25:34.262Z,21.39
2018-08-21T01:26:14.834Z,21.39
2018-08-21T01:26:55.399Z,21.42
2018-08-21T01:27:35.954Z,21.48
2018-08-21T01:28:16.523Z,21.37
2018-08-21T01:28:57.086Z,21.43
2018-08-21T01:29:37.649Z,21.42
2018-08-21T01:30:18.216Z,21.42
2018-08-21T01:30:58.775Z,21.48
2018-08-21T01:31:39.331Z,21.55
2018-08-21T01:32:19.899Z,21.39
2018-08-21T01:33:00.463Z,21.48
2018-08-21T01:33:41.018Z,21.48
2018-08-21T01:34:21.590Z,21.5
2018-08-21T01:35:02.156Z,21.42
2018-08-21T01:35:42.731Z,21.48
2018-08-21T01:36:23.302Z,21.5
2018-08-21T01:37:03.854Z,21.43
2018-08-21T01:37:44.427Z,21.52
2018-08-21T01:38:25.022Z,21.51
2018-08-21T01:39:05.582Z,21.4
2018-08-21T01:39:46.152Z,21.43
2018-08-21T01:40:26.711Z,21.39
2018-08-21T01:41:07.277Z,21.37
2018-08-21T01:41:47.827Z,21.4
2018-08-21T01:42:28.390Z,21.37
2018-08-21T01:43:08.949Z,21.33
2018-08-21T01:43:49.504Z,21.36
2018-08-21T01:44:30.076Z,21.39
2018-08-21T01:45:10.637Z,21.29
2018-08-21T01:45:51.209Z,21.32
2018-08-21T01:46:31.781Z,21.22
2018-08-21T01:47:12.353Z,21.14
2018-08-21T01:47:52.914Z,21.18
2018-08-21T01:48:33.478Z,21.05
2018-08-21T01:49:14.041Z,21.09
2018-08-21T01:49:54.610Z,21.12
2018-08-21T01:50:35.188Z,21.17
2018-08-21T01:51:15.759Z,21.05
2018-08-21T01:51:56.334Z,21.14
2018-08-21T01:52:36.906Z,21.14
2018-08-21T01:53:17.481Z,21.18
2018-08-21T01:53:58.044Z,21.2
2018-08-21T01:54:38.606Z,21.12
2018-08-21T01:55:19.174Z,21.07
2018-08-21T01:55:59.772Z,21.11
2018-08-21T01:56:40.324Z,21.15
2018-08-21T01:57:20.896Z,21.11
2018-08-21T01:58:01.458Z,21.14
2018-08-21T01:58:42.085Z,21.09
2018-08-21T01:59:22.641Z,21.15
2018-08-21T02:00:03.209Z,21.15
2018-08-21T02:00:43.767Z,21.06
2018-08-21T02:01:24.336Z,21.14
2018-08-21T02:02:04.977Z,21.12
2018-08-21T02:02:45.493Z,21.03
2018-08-21T02:03:26.053Z,21.14
2018-08-21T02:04:06.624Z,21.12
2018-08-21T02:04:47.192Z,21.11
2018-08-21T02:05:27.756Z,21.15
2018-08-21T02:06:08.317Z,21.15
2018-08-21T02:06:48.879Z,21.12
2018-08-21T02:07:29.438Z,21.09
2018-08-21T02:08:10.004Z,21.14
2018-08-21T02:08:50.569Z,21.2
2018-08-21T02:09:31.141Z,21.14
2018-08-21T02:10:11.726Z,21.18
2018-08-21T02:10:52.304Z,21.12
2018-08-21T02:11:32.868Z,21.11
2018-08-21T02:12:13.433Z,21
2018-08-21T02:12:54.013Z,21.17
2018-08-21T02:13:34.573Z,20.97
2018-08-21T02:14:15.142Z,21.21
2018-08-21T02:14:55.699Z,21.12
2018-08-21T02:15:36.272Z,21.17
2018-08-21T02:16:16.830Z,21.14
2018-08-21T02:16:57.390Z,21.12
2018-08-21T02:17:37.948Z,21.12
2018-08-21T02:18:18.518Z,21.03
2018-08-21T02:18:59.088Z,21.14
2018-08-21T02:19:39.654Z,21.06
2018-08-21T02:20:20.220Z,21.15
2018-08-21T02:21:00.785Z,21.05
2018-08-21T02:21:41.353Z,21.07
2018-08-21T02:22:21.916Z,21.07
2018-08-21T02:23:02.490Z,21
2018-08-21T02:23:43.056Z,21.02
2018-08-21T02:24:23.627Z,21.06
2018-08-21T02:25:04.181Z,21.05
2018-08-21T02:25:44.753Z,21.05
2018-08-21T02:26:25.320Z,21.02
2018-08-21T02:27:05.885Z,21.03
2018-08-21T02:27:46.466Z,21.02
2018-08-21T02:28:27.033Z,21.02
2018-08-21T02:29:07.631Z,20.95
2018-08-21T02:29:48.188Z,21.06
2018-08-21T02:30:28.747Z,20.97
2018-08-21T02:31:09.328Z,21.05
2018-08-21T02:31:49.970Z,21.03
2018-08-21T02:32:30.524Z,21.02
2018-08-21T02:33:11.077Z,21.09
2018-08-21T02:33:51.629Z,21.07
2018-08-21T02:34:32.204Z,21.07
2018-08-21T02:35:12.759Z,21
2018-08-21T02:35:53.329Z,21.02
2018-08-21T02:36:33.898Z,21.09
2018-08-21T02:37:14.467Z,21.02
2018-08-21T02:37:55.028Z,20.93
2018-08-21T02:38:35.599Z,20.93
2018-08-21T02:39:16.159Z,20.97
2018-08-21T02:39:56.726Z,20.9
2018-08-21T02:40:37.287Z,20.85
2018-08-21T02:41:17.863Z,20.92
2018-08-21T02:41:58.415Z,20.88
2018-08-21T02:42:38.999Z,20.88
2018-08-21T02:43:19.573Z,20.87
2018-08-21T02:44:00.137Z,20.96
2018-08-21T02:44:40.712Z,21
2018-08-21T02:45:21.268Z,20.93
2018-08-21T02:46:01.833Z,20.95
2018-08-21T02:46:42.396Z,20.85
2018-08-21T02:47:22.966Z,20.95
2018-08-21T02:48:03.531Z,20.96
2018-08-21T02:48:44.099Z,20.88
2018-08-21T02:49:24.664Z,20.96
2018-08-21T02:50:05.242Z,20.92
2018-08-21T02:50:45.826Z,20.97
2018-08-21T02:51:26.389Z,20.99
2018-08-21T02:52:06.957Z,20.87
2018-08-21T02:52:47.514Z,21
2018-08-21T02:53:28.090Z,20.96
2018-08-21T02:54:08.653Z,20.92
2018-08-21T02:54:49.211Z,20.9
2018-08-21T02:55:29.772Z,20.88
2018-08-21T02:56:10.343Z,20.96
2018-08-21T02:56:50.902Z,20.97
2018-08-21T02:57:31.467Z,20.97
2018-08-21T02:58:12.053Z,20.87
2018-08-21T02:58:52.620Z,20.95
2018-08-21T02:59:33.183Z,21
2018-08-21T03:00:13.749Z,20.96
2018-08-21T03:00:54.316Z,21
2018-08-21T03:01:34.907Z,21.06
2018-08-21T03:02:15.484Z,21.03
2018-08-21T03:02:56.046Z,21.03
2018-08-21T03:03:36.609Z,20.9
2018-08-21T03:04:17.185Z,21.06
2018-08-21T03:04:57.792Z,21.09
2018-08-21T03:05:38.310Z,21
2018-08-21T03:06:18.882Z,20.93
2018-08-21T03:06:59.451Z,21.03
2018-08-21T03:07:40.015Z,20.96
2018-08-21T03:08:20.563Z,20.87
2018-08-21T03:09:01.130Z,20.92
2018-08-21T03:09:41.726Z,20.96
2018-08-21T03:10:22.291Z,20.96
2018-08-21T03:11:02.884Z,20.9
2018-08-21T03:11:43.458Z,20.9
2018-08-21T03:12:24.037Z,20.92
2018-08-21T03:13:04.601Z,20.81
2018-08-21T03:13:45.163Z,20.87
2018-08-21T03:14:25.735Z,20.82
2018-08-21T03:15:06.451Z,20.9
2018-08-21T03:15:47.090Z,20.9
2018-08-21T03:16:27.849Z,20.85
2018-08-21T03:17:08.567Z,20.84
2018-08-21T03:17:49.160Z,20.9
2018-08-21T03:18:29.835Z,20.88
2018-08-21T03:19:10.639Z,20.82
2018-08-21T03:19:51.311Z,20.85
2018-08-21T03:20:32.117Z,20.87
2018-08-21T03:21:12.806Z,20.85
2018-08-21T03:21:53.372Z,20.84
2018-08-21T03:22:33.938Z,20.81
2018-08-21T03:23:14.632Z,20.72
2018-08-21T03:23:55.199Z,20.75
2018-08-21T03:24:35.771Z,20.77
2018-08-21T03:25:16.344Z,20.63
2018-08-21T03:25:56.894Z,20.66
2018-08-21T03:26:37.451Z,20.66
2018-08-21T03:27:18.021Z,20.66
2018-08-21T03:27:58.583Z,20.52
2018-08-21T03:28:39.166Z,20.62
2018-08-21T03:29:19.719Z,20.62
2018-08-21T03:30:00.303Z,20.63
2018-08-21T03:30:40.903Z,20.56
2018-08-21T03:31:21.466Z,20.56
2018-08-21T03:32:02.039Z,20.6
2018-08-21T03:32:42.598Z,20.59
2018-08-21T03:33:23.161Z,20.48
2018-08-21T03:34:03.713Z,20.48
2018-08-21T03:34:44.278Z,20.58
2018-08-21T03:35:24.840Z,20.47
2018-08-21T03:36:05.535Z,20.58
2018-08-21T03:36:46.137Z,20.6
2018-08-21T03:37:26.710Z,20.44
2018-08-21T03:38:07.284Z,20.55
2018-08-21T03:38:47.868Z,20.56
2018-08-21T03:39:28.431Z,20.59
2018-08-21T03:40:09.027Z,20.59
2018-08-21T03:40:49.577Z,20.6
2018-08-21T03:41:30.147Z,20.62
2018-08-21T03:42:10.713Z,20.6
2018-08-21T03:42:51.276Z,20.66
2018-08-21T03:43:31.862Z,20.62
2018-08-21T03:44:12.436Z,20.7
2018-08-21T03:44:53.001Z,20.66
2018-08-21T03:45:33.565Z,20.69
2018-08-21T03:46:14.130Z,20.69
2018-08-21T03:46:54.696Z,20.62
2018-08-21T03:47:35.250Z,20.59
2018-08-21T03:48:15.812Z,20.63
2018-08-21T03:48:56.371Z,20.63
2018-08-21T03:49:36.938Z,20.52
2018-08-21T03:50:17.505Z,20.59
2018-08-21T03:50:58.250Z,20.59
2018-08-21T03:51:38.971Z,20.58
2018-08-21T03:52:19.540Z,20.51
2018-08-21T03:53:00.931Z,20.58
2018-08-21T03:53:41.499Z,20.48
2018-08-21T03:54:22.062Z,20.51
2018-08-21T03:55:02.691Z,20.55
2018-08-21T03:55:43.252Z,20.52
2018-08-21T03:56:23.820Z,20.55
2018-08-21T03:57:04.386Z,20.51
2018-08-21T03:57:45.028Z,20.56
2018-08-21T03:58:25.559Z,20.58
2018-08-21T03:59:06.139Z,20.58
2018-08-21T03:59:46.784Z,20.59
2018-08-21T04:00:27.338Z,20.55
2018-08-21T04:01:07.897Z,20.6
2018-08-21T04:01:48.593Z,20.55
2018-08-21T04:02:29.128Z,20.55
2018-08-21T04:03:09.681Z,20.52
2018-08-21T04:03:50.240Z,20.52
2018-08-21T04:04:30.818Z,20.52
2018-08-21T04:05:11.490Z,20.52
2018-08-21T04:05:51.954Z,20.4
2018-08-21T04:06:32.515Z,20.44
2018-08-21T04:07:13.082Z,20.5
2018-08-21T04:07:53.649Z,20.37
2018-08-21T04:08:34.218Z,20.5
2018-08-21T04:09:14.796Z,20.44
2018-08-21T04:09:55.359Z,20.47
2018-08-21T04:10:35.919Z,20.58
2018-08-21T04:11:16.485Z,20.48
2018-08-21T04:11:57.060Z,20.44
2018-08-21T04:12:37.633Z,20.37
2018-08-21T04:13:18.206Z,20.43
2018-08-21T04:13:58.765Z,20.25
2018-08-21T04:14:39.333Z,20.32
2018-08-21T04:15:19.903Z,20.26
2018-08-21T04:16:00.460Z,20.21
2018-08-21T04:16:41.025Z,20.28
2018-08-21T04:17:21.579Z,20.25
2018-08-21T04:18:02.145Z,20.34
2018-08-21T04:18:42.709Z,20.28
2018-08-21T04:19:23.263Z,20.36
2018-08-21T04:20:03.825Z,20.29
2018-08-21T04:20:44.396Z,20.28
2018-08-21T04:21:24.958Z,20.31
2018-08-21T04:22:05.520Z,20.28
2018-08-21T04:22:46.094Z,20.39
2018-08-21T04:23:26.655Z,20.29
2018-08-21T04:24:07.220Z,20.29
2018-08-21T04:24:47.789Z,20.28
2018-08-21T04:25:28.367Z,20.4
2018-08-21T04:26:08.953Z,20.39
2018-08-21T04:26:49.509Z,20.37
2018-08-21T04:27:30.083Z,20.39
2018-08-21T04:28:10.644Z,20.41
2018-08-21T04:28:51.210Z,20.29
2018-08-21T04:29:31.775Z,20.36
2018-08-21T04:30:12.355Z,20.34
2018-08-21T04:30:52.928Z,20.37
2018-08-21T04:31:33.499Z,20.26
2018-08-21T04:32:14.036Z,20.4
2018-08-21T04:32:54.650Z,20.29
2018-08-21T04:33:35.211Z,20.31
2018-08-21T04:34:15.800Z,20.29
2018-08-21T04:34:56.368Z,20.34
2018-08-21T04:35:36.973Z,20.34
2018-08-21T04:36:17.515Z,20.36
2018-08-21T04:36:58.084Z,20.29
2018-08-21T04:37:38.675Z,20.43
2018-08-21T04:38:19.257Z,20.26
2018-08-21T04:38:59.828Z,20.4
2018-08-21T04:39:40.382Z,20.41
2018-08-21T04:40:20.947Z,20.43
2018-08-21T04:41:01.555Z,20.36
2018-08-21T04:41:42.123Z,20.43
2018-08-21T04:42:22.708Z,20.43
2018-08-21T04:43:03.309Z,20.32
2018-08-21T04:43:43.861Z,20.34
2018-08-21T04:44:24.424Z,20.36
2018-08-21T04:45:04.998Z,20.39
2018-08-21T04:45:45.567Z,20.29
2018-08-21T04:46:26.281Z,20.29
2018-08-21T04:47:06.822Z,20.39
2018-08-21T04:47:47.378Z,20.34
2018-08-21T04:48:27.941Z,20.29
2018-08-21T04:49:08.510Z,20.34
2018-08-21T04:49:49.080Z,20.37
2018-08-21T04:50:29.636Z,20.26
2018-08-21T04:51:10.258Z,20.32
2018-08-21T04:51:50.832Z,20.32
2018-08-21T04:52:31.398Z,20.29
2018-08-21T04:53:11.991Z,20.26
2018-08-21T04:53:52.567Z,20.29
2018-08-21T04:54:33.138Z,20.36
2018-08-21T04:55:13.698Z,20.29
2018-08-21T04:55:54.258Z,20.28
2018-08-21T04:56:34.833Z,20.28
2018-08-21T04:57:15.390Z,20.31
2018-08-21T04:57:55.958Z,20.31
2018-08-21T04:58:36.594Z,20.28
2018-08-21T04:59:17.098Z,20.29
2018-08-21T04:59:57.674Z,20.31
2018-08-21T05:00:38.250Z,20.31
2018-08-21T05:01:18.826Z,20.31
2018-08-21T05:01:59.382Z,20.31
2018-08-21T05:02:39.947Z,20.25
2018-08-21T05:03:20.590Z,20.34
2018-08-21T05:04:01.211Z,20.36
2018-08-21T05:04:41.772Z,20.28
2018-08-21T05:05:22.340Z,20.37
2018-08-21T05:06:02.913Z,20.28
2018-08-21T05:06:43.480Z,20.28
2018-08-21T05:07:24.055Z,20.28
2018-08-21T05:08:04.636Z,20.41
2018-08-21T05:08:45.198Z,20.41
2018-08-21T05:09:25.767Z,20.41
2018-08-21T05:10:06.335Z,20.37
2018-08-21T05:10:46.890Z,20.37
2018-08-21T05:11:27.456Z,20.32
2018-08-21T05:12:08.013Z,20.36
2018-08-21T05:12:48.578Z,20.29
2018-08-21T05:13:29.163Z,20.29
2018-08-21T05:14:09.719Z,20.28
2018-08-21T05:14:50.290Z,20.28
2018-08-21T05:15:30.857Z,20.25
2018-08-21T05:16:11.428Z,20.29
2018-08-21T05:16:51.989Z,20.24
2018-08-21T05:17:32.549Z,20.21
2018-08-21T05:18:13.207Z,20.14
2018-08-21T05:18:53.695Z,20.14
2018-08-21T05:19:34.274Z,20.19
2018-08-21T05:20:14.833Z,20.19
2018-08-21T05:20:55.407Z,20.21
2018-08-21T05:21:35.966Z,20.19
2018-08-21T05:22:16.569Z,20.14
2018-08-21T05:22:57.222Z,20.31
2018-08-21T05:23:37.799Z,20.24
2018-08-21T05:24:18.364Z,20.25
2018-08-21T05:24:58.935Z,20.29
2018-08-21T05:25:39.499Z,20.25
2018-08-21T05:26:20.063Z,20.31
2018-08-21T05:27:00.623Z,20.26
2018-08-21T05:27:41.243Z,20.34
2018-08-21T05:28:21.846Z,20.39
2018-08-21T05:29:02.373Z,20.28
2018-08-21T05:29:42.947Z,20.37
2018-08-21T05:30:23.506Z,20.4
2018-08-21T05:31:04.075Z,20.43
2018-08-21T05:31:44.637Z,20.48
2018-08-21T05:32:25.204Z,20.47
2018-08-21T05:33:05.832Z,20.5
2018-08-21T05:33:46.383Z,20.43
2018-08-21T05:34:26.950Z,20.51
2018-08-21T05:35:07.550Z,20.52
2018-08-21T05:35:48.130Z,20.44
2018-08-21T05:36:28.774Z,20.44
2018-08-21T05:37:09.337Z,20.43
2018-08-21T05:37:49.893Z,20.5
2018-08-21T05:38:30.478Z,20.5
2018-08-21T05:39:11.041Z,20.43
2018-08-21T05:39:51.716Z,20.58
2018-08-21T05:40:32.282Z,20.43
2018-08-21T05:41:12.842Z,20.34
2018-08-21T05:41:53.407Z,20.47
2018-08-21T05:42:34.143Z,20.39
2018-08-21T05:43:14.707Z,20.39
2018-08-21T05:43:55.295Z,20.29
2018-08-21T05:44:35.866Z,20.4
2018-08-21T05:45:16.433Z,20.39
2018-08-21T05:45:57.012Z,20.52
2018-08-21T05:46:37.593Z,20.37
2018-08-21T05:47:18.161Z,20.43
2018-08-21T05:47:58.727Z,20.4
2018-08-21T05:48:39.294Z,20.51
2018-08-21T05:49:19.863Z,20.56
2018-08-21T05:50:01.160Z,20.56
2018-08-21T05:50:41.712Z,20.44
2018-08-21T05:51:22.343Z,20.43
2018-08-21T05:52:02.906Z,20.28
2018-08-21T05:52:43.460Z,20.4
2018-08-21T05:53:24.043Z,20.37
2018-08-21T05:54:04.641Z,20.37
2018-08-21T05:54:45.227Z,20.37
2018-08-21T05:55:25.976Z,20.39
2018-08-21T05:56:06.374Z,20.41
2018-08-21T05:56:46.955Z,20.29
2018-08-21T05:57:27.513Z,20.28
2018-08-21T05:58:08.082Z,20.26
2018-08-21T05:58:48.990Z,20.36
2018-08-21T05:59:29.699Z,20.37
2018-08-21T06:00:10.429Z,20.29
2018-08-21T06:00:50.998Z,20.28
2018-08-21T06:01:31.567Z,20.44
2018-08-21T06:02:12.131Z,20.4
2018-08-21T06:02:52.731Z,20.43
2018-08-21T06:03:33.302Z,20.36
2018-08-21T06:04:14.979Z,20.52
2018-08-21T06:04:54.860Z,20.41
2018-08-21T06:05:35.607Z,20.51
2018-08-21T06:06:16.162Z,20.56
2018-08-21T06:06:56.721Z,20.41
2018-08-21T06:07:37.336Z,20.43
2018-08-21T06:08:18.137Z,20.4
2018-08-21T06:08:58.703Z,20.44
2018-08-21T06:09:39.303Z,20.5
2018-08-21T06:10:19.896Z,20.41
2018-08-21T06:11:00.677Z,20.52
2018-08-21T06:11:41.549Z,20.39
2018-08-21T06:12:22.193Z,20.4
2018-08-21T06:13:02.756Z,20.4
2018-08-21T06:13:43.342Z,20.47
2018-08-21T06:14:23.907Z,20.43
2018-08-21T06:15:04.510Z,20.41
2018-08-21T06:15:45.072Z,20.48
2018-08-21T06:16:25.632Z,20.47
2018-08-21T06:17:06.193Z,20.51
2018-08-21T06:17:46.765Z,20.5
2018-08-21T06:18:27.493Z,20.51
2018-08-21T06:19:08.077Z,20.63
2018-08-21T06:19:48.737Z,20.63
2018-08-21T06:20:29.310Z,20.58
2018-08-21T06:21:09.893Z,20.63
2018-08-21T06:21:50.454Z,20.65
2018-08-21T06:22:31.121Z,20.7
2018-08-21T06:23:11.685Z,20.7
2018-08-21T06:23:52.362Z,20.74
2018-08-21T06:24:32.983Z,20.81
2018-08-21T06:25:13.519Z,20.82
2018-08-21T06:25:54.088Z,20.95
2018-08-21T06:26:34.665Z,21
2018-08-21T06:27:15.233Z,21.11
2018-08-21T06:27:55.793Z,21.12
2018-08-21T06:28:36.368Z,21.25
2018-08-21T06:29:16.950Z,21.27
2018-08-21T06:29:57.508Z,21.42
2018-08-21T06:30:38.066Z,21.54
2018-08-21T06:31:18.629Z,21.46
2018-08-21T06:31:59.203Z,21.66
2018-08-21T06:32:39.759Z,21.62
2018-08-21T06:33:20.325Z,21.8
2018-08-21T06:34:00.925Z,21.93
2018-08-21T06:34:41.494Z,21.98
2018-08-21T06:35:22.069Z,22.14
2018-08-21T06:36:02.702Z,22.14
2018-08-21T06:36:43.241Z,22.39
2018-08-21T06:37:23.829Z,22.36
2018-08-21T06:38:04.418Z,22.51
2018-08-21T06:38:44.969Z,22.53
2018-08-21T06:39:25.541Z,22.6
2018-08-21T06:40:06.106Z,22.68
2018-08-21T06:40:46.703Z,22.84
2018-08-21T06:41:27.281Z,22.93
2018-08-21T06:42:07.865Z,23.06
2018-08-21T06:42:48.439Z,23.12
2018-08-21T06:43:29.046Z,23.23
2018-08-21T06:44:09.610Z,23.25
2018-08-21T06:44:50.176Z,23.41
2018-08-21T06:45:30.746Z,23.46
2018-08-21T06:46:11.313Z,23.59
2018-08-21T06:46:51.924Z,23.62
2018-08-21T06:47:32.491Z,23.66
2018-08-21T06:48:13.056Z,23.66
2018-08-21T06:48:53.640Z,23.71
2018-08-21T06:49:34.204Z,23.78
2018-08-21T06:50:14.775Z,23.83
2018-08-21T06:50:55.347Z,23.88
2018-08-21T06:51:35.944Z,23.92
2018-08-21T06:52:16.535Z,23.92
2018-08-21T06:52:57.213Z,23.99
2018-08-21T06:53:40.404Z,24.11
2018-08-21T06:54:20.994Z,24.1
2018-08-21T06:55:01.592Z,24.11
2018-08-21T06:55:42.171Z,24.16
2018-08-21T06:56:22.786Z,24.2
2018-08-21T06:57:03.361Z,24.16
2018-08-21T06:57:43.936Z,24.29
2018-08-21T06:58:24.541Z,24.18
2018-08-21T06:59:05.212Z,24.2
2018-08-21T06:59:45.836Z,24.2
2018-08-21T07:00:26.401Z,24.2
2018-08-21T07:01:07.324Z,24.26
2018-08-21T07:01:47.940Z,24.3
2018-08-21T07:02:28.583Z,24.33
2018-08-21T07:03:09.173Z,24.29
2018-08-21T07:03:49.812Z,24.35
2018-08-21T07:04:30.434Z,24.26
2018-08-21T07:05:11.068Z,24.4
2018-08-21T07:05:51.640Z,24.47
2018-08-21T07:06:32.230Z,24.43
2018-08-21T07:07:12.817Z,24.45
2018-08-21T07:07:53.490Z,24.53
2018-08-21T07:08:34.152Z,24.63
2018-08-21T07:09:14.841Z,24.77
2018-08-21T07:09:55.470Z,24.76
2018-08-21T07:10:36.124Z,24.88
2018-08-21T07:11:16.732Z,24.88
2018-08-21T07:11:57.608Z,24.92
2018-08-21T07:12:38.410Z,24.89
2018-08-21T07:13:19.016Z,24.92
2018-08-21T07:13:59.942Z,24.98
2018-08-21T07:14:40.647Z,24.93
2018-08-21T07:15:21.479Z,25.11
2018-08-21T07:16:02.082Z,25.1
2018-08-21T07:16:42.850Z,25.16
2018-08-21T07:17:23.489Z,25.22
2018-08-21T07:18:04.066Z,25.23
2018-08-21T07:18:44.646Z,25.26
2018-08-21T07:19:25.354Z,25.29
2018-08-21T07:20:05.854Z,25.35
2018-08-21T07:20:46.420Z,25.43
2018-08-21T07:21:27.123Z,25.46
2018-08-21T07:22:08.833Z,25.5
2018-08-21T07:22:50.043Z,25.47
2018-08-21T07:23:30.648Z,25.59
2018-08-21T07:24:11.257Z,25.53
2018-08-21T07:24:52.051Z,25.6
2018-08-21T07:25:32.654Z,25.66
2018-08-21T07:26:13.291Z,25.65
2018-08-21T07:26:53.854Z,25.75
2018-08-21T07:27:34.448Z,25.7
2018-08-21T07:28:15.035Z,25.77
2018-08-21T07:28:55.726Z,25.7
2018-08-21T07:29:36.335Z,25.75
2018-08-21T07:30:16.974Z,25.69
2018-08-21T07:30:57.557Z,25.77
2018-08-21T07:31:38.167Z,25.87
2018-08-21T07:32:18.782Z,25.88
2018-08-21T07:32:59.357Z,25.9
2018-08-21T07:33:39.951Z,25.91
2018-08-21T07:34:20.554Z,25.98
2018-08-21T07:35:01.133Z,25.98
2018-08-21T07:35:41.758Z,26.03
2018-08-21T07:36:22.320Z,26.03
2018-08-21T07:37:02.914Z,26.05
2018-08-21T07:37:43.561Z,25.96
2018-08-21T07:38:24.179Z,26.1
2018-08-21T07:39:04.788Z,26.15
2018-08-21T07:39:45.387Z,26.07
2018-08-21T07:40:26.004Z,26.06
2018-08-21T07:41:06.636Z,26.1
2018-08-21T07:41:47.212Z,26.13
2018-08-21T07:42:27.809Z,26.22
2018-08-21T07:43:08.396Z,26.23
2018-08-21T07:43:48.974Z,26.21
2018-08-21T07:44:29.592Z,26.13
2018-08-21T07:45:10.199Z,26.23
2018-08-21T07:45:50.837Z,26.25
2018-08-21T07:46:31.472Z,26.26
2018-08-21T07:47:12.067Z,26.26
2018-08-21T07:47:52.638Z,26.31
2018-08-21T07:48:33.242Z,26.25
2018-08-21T07:49:13.850Z,26.16
2018-08-21T07:49:54.413Z,26.22
2018-08-21T07:50:35.041Z,26.29
2018-08-21T07:51:15.883Z,26.29
2018-08-21T07:51:56.483Z,26.28
2018-08-21T07:52:37.046Z,26.28
2018-08-21T07:53:17.658Z,26.26
2018-08-21T07:53:58.225Z,26.25
2018-08-21T07:54:38.796Z,26.29
2018-08-21T07:55:19.415Z,26.29
2018-08-21T07:56:00.021Z,26.25
2018-08-21T07:56:40.591Z,26.18
2018-08-21T07:57:21.169Z,26.1
2018-08-21T07:58:01.787Z,26.23
2018-08-21T07:58:42.332Z,26.21
2018-08-21T07:59:22.894Z,26.19
2018-08-21T08:00:03.541Z,26.13
2018-08-21T08:00:44.155Z,26.1
2018-08-21T08:01:24.760Z,26
2018-08-21T08:02:05.329Z,26.03
2018-08-21T08:02:45.901Z,25.99
2018-08-21T08:03:26.506Z,25.91
2018-08-21T08:04:07.201Z,25.87
2018-08-21T08:04:47.704Z,25.87
2018-08-21T08:05:28.303Z,25.84
2018-08-21T08:06:08.874Z,25.9
2018-08-21T08:06:49.459Z,25.9
2018-08-21T08:07:30.069Z,25.81
2018-08-21T08:08:10.637Z,25.84
2018-08-21T08:08:51.198Z,25.88
2018-08-21T08:09:31.789Z,25.88
2018-08-21T08:10:12.383Z,25.91
2018-08-21T08:10:52.973Z,25.87
2018-08-21T08:11:33.550Z,25.87
2018-08-21T08:12:14.115Z,25.9
2018-08-21T08:12:54.690Z,25.88
2018-08-21T08:13:35.335Z,25.73
2018-08-21T08:14:15.838Z,25.68
2018-08-21T08:14:56.421Z,25.68
2018-08-21T08:15:36.996Z,25.51
2018-08-21T08:16:17.573Z,25.62
2018-08-21T08:16:58.148Z,25.53
2018-08-21T08:17:38.712Z,25.5
2018-08-21T08:18:19.275Z,25.51
2018-08-21T08:18:59.892Z,25.5
2018-08-21T08:19:40.436Z,25.51
2018-08-21T08:20:21.029Z,25.53
2018-08-21T08:21:01.653Z,25.43
2018-08-21T08:21:42.302Z,25.54
2018-08-21T08:22:22.839Z,25.51
2018-08-21T08:23:03.452Z,25.54
2018-08-21T08:23:43.989Z,25.55
2018-08-21T08:24:24.566Z,25.54
2018-08-21T08:25:05.151Z,25.59
2018-08-21T08:25:45.727Z,25.51
2018-08-21T08:26:26.293Z,25.44
2018-08-21T08:27:06.864Z,25.41
2018-08-21T08:27:47.430Z,25.41
2018-08-21T08:28:28.005Z,25.38
2018-08-21T08:29:08.691Z,25.32
2018-08-21T08:29:49.171Z,25.41
2018-08-21T08:30:29.736Z,25.38
2018-08-21T08:31:10.295Z,25.4
2018-08-21T08:31:50.879Z,25.33
2018-08-21T08:32:31.477Z,25.35
2018-08-21T08:33:12.041Z,25.4
2018-08-21T08:33:52.655Z,25.41
2018-08-21T08:34:33.239Z,25.44
2018-08-21T08:35:13.810Z,25.32
2018-08-21T08:35:54.413Z,25.26
2018-08-21T08:36:34.975Z,25.17
2018-08-21T08:37:15.531Z,25.04
2018-08-21T08:37:56.124Z,25.07
2018-08-21T08:38:36.725Z,25.08
2018-08-21T08:39:17.360Z,25.13
2018-08-21T08:39:57.926Z,25.14
2018-08-21T08:40:38.507Z,25.11
2018-08-21T08:41:19.068Z,25.1
2018-08-21T08:41:59.662Z,24.98
2018-08-21T08:42:40.205Z,24.88
2018-08-21T08:43:20.772Z,24.85
2018-08-21T08:44:01.369Z,24.8
2018-08-21T08:44:41.948Z,24.73
2018-08-21T08:45:22.577Z,24.77